This is the latest recevied weather packets stored in our database for station/object DB0HRH-10. If no packets are shown the sender has not sent any weather packets the latest 10 day(s).
| Time | Temp. | Humidity | Pressure | Rain* | Wind** | Luminosity | Snow |
|---|---|---|---|---|---|---|---|
| 1777471322 | 20° C | 30% | 1022.5 hPa | - | - | - | - |
| 1777470422 | 20.56° C | 30% | 1022.4 hPa | - | - | - | - |
| 1777469522 | 21.11° C | 30% | 1022.5 hPa | - | - | - | - |
| 1777468622 | 20.56° C | 30% | 1022.5 hPa | - | - | - | - |
| 1777467722 | 22.22° C | 29% | 1022.5 hPa | - | - | - | - |
| 1777466822 | 21.67° C | 30% | 1022.5 hPa | - | - | - | - |
| 1777465922 | 22.22° C | 29% | 1022.6 hPa | - | - | - | - |
| 1777465022 | 23.33° C | 30% | 1022.4 hPa | - | - | - | - |
| 1777464122 | 22.22° C | 31% | 1022.6 hPa | - | - | - | - |
| 1777463222 | 22.78° C | 31% | 1022.7 hPa | - | - | - | - |
| 1777462321 | 22.22° C | 32% | 1022.7 hPa | - | - | - | - |
| 1777461422 | 21.67° C | 33% | 1022.7 hPa | - | - | - | - |
| 1777460521 | 20.56° C | 35% | 1022.7 hPa | - | - | - | - |
| 1777459621 | 21.11° C | 34% | 1022.7 hPa | - | - | - | - |
| 1777458721 | 20.56° C | 34% | 1022.8 hPa | - | - | - | - |
| 1777457821 | 18.89° C | 37% | 1022.8 hPa | - | - | - | - |
| 1777456921 | 18.89° C | 37% | 1022.9 hPa | - | - | - | - |
| 1777456021 | 17.78° C | 37% | 1022.9 hPa | - | - | - | - |
| 1777455121 | 16.67° C | 40% | 1023 hPa | - | - | - | - |
| 1777454221 | 16.67° C | 41% | 1022.9 hPa | - | - | - | - |
| 1777453321 | 16.11° C | 40% | 1022.9 hPa | - | - | - | - |
| 1777452421 | 15.56° C | 42% | 1023 hPa | - | - | - | - |
| 1777451521 | 14.44° C | 44% | 1022.9 hPa | - | - | - | - |
| 1777450620 | 14.44° C | 42% | 1023 hPa | - | - | - | - |
| 1777449720 | 13.33° C | 44% | 1022.9 hPa | - | - | - | - |
* Rain since midnight (hover to see other rain measurements)
** Current wind speed in m/s (hover to see current wind gust speed)